sensor_id;sensor_type;location;lat;lon;timestamp;temperature;humidity
46416;DHT22;32620;51.704;7.822;2022-07-25T00:02:13;20.40;99.90
46416;DHT22;32620;51.704;7.822;2022-07-25T00:04:38;20.30;99.90
46416;DHT22;32620;51.704;7.822;2022-07-25T00:07:04;20.40;99.90
46416;DHT22;32620;51.704;7.822;2022-07-25T00:09:30;20.40;99.90
46416;DHT22;32620;51.704;7.822;2022-07-25T00:11:55;20.40;99.90
46416;DHT22;32620;51.704;7.822;2022-07-25T00:14:21;20.40;99.90
46416;DHT22;32620;51.704;7.822;2022-07-25T00:16:46;20.30;99.90
46416;DHT22;32620;51.704;7.822;2022-07-25T00:19:11;20.30;99.90
46416;DHT22;32620;51.704;7.822;2022-07-25T00:21:37;20.30;99.90
46416;DHT22;32620;51.704;7.822;2022-07-25T00:24:03;20.30;99.90
46416;DHT22;32620;51.704;7.822;2022-07-25T00:26:28;20.20;99.90
46416;DHT22;32620;51.704;7.822;2022-07-25T00:28:54;20.20;99.90
46416;DHT22;32620;51.704;7.822;2022-07-25T00:31:19;20.10;99.90
46416;DHT22;32620;51.704;7.822;2022-07-25T00:33:45;20.10;99.90
46416;DHT22;32620;51.704;7.822;2022-07-25T00:36:10;20.10;99.90
46416;DHT22;32620;51.704;7.822;2022-07-25T00:38:36;19.90;99.90
46416;DHT22;32620;51.704;7.822;2022-07-25T00:41:02;19.90;99.90
46416;DHT22;32620;51.704;7.822;2022-07-25T00:43:27;19.80;99.90
46416;DHT22;32620;51.704;7.822;2022-07-25T00:45:53;19.80;99.90
46416;DHT22;32620;51.704;7.822;2022-07-25T00:48:18;19.70;99.90
46416;DHT22;32620;51.704;7.822;2022-07-25T00:50:44;19.70;99.90
46416;DHT22;32620;51.704;7.822;2022-07-25T00:53:09;19.70;99.90
46416;DHT22;32620;51.704;7.822;2022-07-25T00:55:35;19.70;99.90
46416;DHT22;32620;51.704;7.822;2022-07-25T00:58:01;19.70;99.90
46416;DHT22;32620;51.704;7.822;2022-07-25T01:00:26;19.70;99.90
46416;DHT22;32620;51.704;7.822;2022-07-25T01:02:52;19.70;99.90
46416;DHT22;32620;51.704;7.822;2022-07-25T01:05:18;19.80;99.90
46416;DHT22;32620;51.704;7.822;2022-07-25T01:07:43;19.70;99.90
46416;DHT22;32620;51.704;7.822;2022-07-25T01:10:09;19.80;99.90
46416;DHT22;32620;51.704;7.822;2022-07-25T01:12:53;19.80;99.90
46416;DHT22;32620;51.704;7.822;2022-07-25T01:15:19;19.80;99.90
46416;DHT22;32620;51.704;7.822;2022-07-25T01:17:45;19.80;99.90
46416;DHT22;32620;51.704;7.822;2022-07-25T01:20:15;19.70;99.90
46416;DHT22;32620;51.704;7.822;2022-07-25T01:22:41;19.60;99.90
46416;DHT22;32620;51.704;7.822;2022-07-25T01:25:07;19.60;99.90
46416;DHT22;32620;51.704;7.822;2022-07-25T01:27:33;19.60;99.90
46416;DHT22;32620;51.704;7.822;2022-07-25T01:29:58;19.50;99.90
46416;DHT22;32620;51.704;7.822;2022-07-25T01:32:24;19.50;99.90
46416;DHT22;32620;51.704;7.822;2022-07-25T01:34:49;19.50;99.90
46416;DHT22;32620;51.704;7.822;2022-07-25T01:37:15;19.50;99.90
46416;DHT22;32620;51.704;7.822;2022-07-25T01:39:40;19.50;99.90
46416;DHT22;32620;51.704;7.822;2022-07-25T01:42:06;19.50;99.90
46416;DHT22;32620;51.704;7.822;2022-07-25T01:44:31;19.50;99.90
46416;DHT22;32620;51.704;7.822;2022-07-25T01:46:57;19.50;99.90
46416;DHT22;32620;51.704;7.822;2022-07-25T01:49:22;19.50;99.90
46416;DHT22;32620;51.704;7.822;2022-07-25T01:51:51;19.40;99.90
46416;DHT22;32620;51.704;7.822;2022-07-25T01:54:16;19.40;99.90
46416;DHT22;32620;51.704;7.822;2022-07-25T01:56:42;19.30;99.90
46416;DHT22;32620;51.704;7.822;2022-07-25T01:59:08;19.30;99.90
46416;DHT22;32620;51.704;7.822;2022-07-25T02:01:35;19.20;99.90
46416;DHT22;32620;51.704;7.822;2022-07-25T02:04:00;19.10;99.90
46416;DHT22;32620;51.704;7.822;2022-07-25T02:06:25;19.00;99.90
46416;DHT22;32620;51.704;7.822;2022-07-25T02:08:51;18.90;99.90
46416;DHT22;32620;51.704;7.822;2022-07-25T02:11:16;18.90;99.90
46416;DHT22;32620;51.704;7.822;2022-07-25T02:13:42;18.80;99.90
46416;DHT22;32620;51.704;7.822;2022-07-25T02:16:09;18.70;99.90
46416;DHT22;32620;51.704;7.822;2022-07-25T02:18:34;18.70;99.90
46416;DHT22;32620;51.704;7.822;2022-07-25T02:21:00;18.70;99.90
46416;DHT22;32620;51.704;7.822;2022-07-25T02:23:25;18.70;99.90
46416;DHT22;32620;51.704;7.822;2022-07-25T02:25:51;18.60;99.90
46416;DHT22;32620;51.704;7.822;2022-07-25T02:28:16;18.60;99.90
46416;DHT22;32620;51.704;7.822;2022-07-25T02:30:42;18.50;99.90
46416;DHT22;32620;51.704;7.822;2022-07-25T02:33:07;18.50;99.90
46416;DHT22;32620;51.704;7.822;2022-07-25T02:35:33;18.40;99.90
46416;DHT22;32620;51.704;7.822;2022-07-25T02:37:58;18.40;99.90
46416;DHT22;32620;51.704;7.822;2022-07-25T02:40:24;18.30;99.90
46416;DHT22;32620;51.704;7.822;2022-07-25T02:42:50;18.30;99.90
46416;DHT22;32620;51.704;7.822;2022-07-25T02:45:15;18.30;99.90
46416;DHT22;32620;51.704;7.822;2022-07-25T02:47:41;18.30;99.90
46416;DHT22;32620;51.704;7.822;2022-07-25T02:50:07;18.30;99.90
46416;DHT22;32620;51.704;7.822;2022-07-25T02:52:32;18.30;99.90
46416;DHT22;32620;51.704;7.822;2022-07-25T02:54:58;18.30;99.90
46416;DHT22;32620;51.704;7.822;2022-07-25T02:57:23;18.30;99.90
46416;DHT22;32620;51.704;7.822;2022-07-25T02:59:48;18.30;99.90
46416;DHT22;32620;51.704;7.822;2022-07-25T03:02:14;18.20;99.90
46416;DHT22;32620;51.704;7.822;2022-07-25T03:04:39;18.30;99.90
46416;DHT22;32620;51.704;7.822;2022-07-25T03:07:05;18.30;99.90
46416;DHT22;32620;51.704;7.822;2022-07-25T03:09:31;18.30;99.90
46416;DHT22;32620;51.704;7.822;2022-07-25T03:11:56;18.40;99.90
46416;DHT22;32620;51.704;7.822;2022-07-25T03:14:21;18.40;99.90
46416;DHT22;32620;51.704;7.822;2022-07-25T03:16:47;18.40;99.90
46416;DHT22;32620;51.704;7.822;2022-07-25T03:19:12;18.40;99.90
46416;DHT22;32620;51.704;7.822;2022-07-25T03:21:38;18.40;99.90
46416;DHT22;32620;51.704;7.822;2022-07-25T03:24:04;18.40;99.90
46416;DHT22;32620;51.704;7.822;2022-07-25T03:26:30;18.40;99.90
46416;DHT22;32620;51.704;7.822;2022-07-25T03:28:55;18.40;99.90
46416;DHT22;32620;51.704;7.822;2022-07-25T03:31:21;18.40;99.90
46416;DHT22;32620;51.704;7.822;2022-07-25T03:33:46;18.40;99.90
46416;DHT22;32620;51.704;7.822;2022-07-25T03:36:12;18.50;99.90
46416;DHT22;32620;51.704;7.822;2022-07-25T03:38:37;18.60;99.90
46416;DHT22;32620;51.704;7.822;2022-07-25T03:41:03;18.60;99.90
46416;DHT22;32620;51.704;7.822;2022-07-25T03:43:29;18.70;99.90
46416;DHT22;32620;51.704;7.822;2022-07-25T03:45:55;18.70;99.90
46416;DHT22;32620;51.704;7.822;2022-07-25T03:48:20;18.60;99.90
46416;DHT22;32620;51.704;7.822;2022-07-25T03:50:46;18.50;99.90
46416;DHT22;32620;51.704;7.822;2022-07-25T03:53:11;18.50;99.90
46416;DHT22;32620;51.704;7.822;2022-07-25T03:55:37;18.50;99.90
46416;DHT22;32620;51.704;7.822;2022-07-25T03:58:03;18.50;99.90
46416;DHT22;32620;51.704;7.822;2022-07-25T04:00:29;18.50;99.90
46416;DHT22;32620;51.704;7.822;2022-07-25T04:02:54;18.50;99.90
46416;DHT22;32620;51.704;7.822;2022-07-25T04:05:20;18.60;99.90
46416;DHT22;32620;51.704;7.822;2022-07-25T04:07:45;18.60;99.90
46416;DHT22;32620;51.704;7.822;2022-07-25T04:10:11;18.60;99.90
46416;DHT22;32620;51.704;7.822;2022-07-25T04:12:36;18.60;99.90
46416;DHT22;32620;51.704;7.822;2022-07-25T04:15:03;18.60;99.90
46416;DHT22;32620;51.704;7.822;2022-07-25T04:17:29;18.60;99.90
46416;DHT22;32620;51.704;7.822;2022-07-25T04:19:54;18.60;99.90
46416;DHT22;32620;51.704;7.822;2022-07-25T04:22:20;18.70;99.90
46416;DHT22;32620;51.704;7.822;2022-07-25T04:24:46;18.70;99.90
46416;DHT22;32620;51.704;7.822;2022-07-25T04:27:12;18.80;99.90
46416;DHT22;32620;51.704;7.822;2022-07-25T04:29:37;18.80;99.90
46416;DHT22;32620;51.704;7.822;2022-07-25T04:32:03;18.90;99.90
46416;DHT22;32620;51.704;7.822;2022-07-25T04:34:29;19.00;99.90
46416;DHT22;32620;51.704;7.822;2022-07-25T04:36:54;19.10;99.90
46416;DHT22;32620;51.704;7.822;2022-07-25T04:39:19;19.20;99.90
46416;DHT22;32620;51.704;7.822;2022-07-25T04:41:45;19.30;99.90
46416;DHT22;32620;51.704;7.822;2022-07-25T04:44:10;19.80;99.90
46416;DHT22;32620;51.704;7.822;2022-07-25T04:46:36;20.80;99.90
46416;DHT22;32620;51.704;7.822;2022-07-25T04:49:01;22.40;99.90
46416;DHT22;32620;51.704;7.822;2022-07-25T04:51:27;24.00;99.90
46416;DHT22;32620;51.704;7.822;2022-07-25T04:53:52;25.40;99.90
46416;DHT22;32620;51.704;7.822;2022-07-25T04:56:18;26.60;99.90
46416;DHT22;32620;51.704;7.822;2022-07-25T04:58:44;27.70;99.90
46416;DHT22;32620;51.704;7.822;2022-07-25T05:01:09;28.40;97.90
46416;DHT22;32620;51.704;7.822;2022-07-25T05:03:35;28.70;96.10
46416;DHT22;32620;51.704;7.822;2022-07-25T05:06:00;28.60;95.40
46416;DHT22;32620;51.704;7.822;2022-07-25T05:08:25;28.50;95.90
46416;DHT22;32620;51.704;7.822;2022-07-25T05:10:51;28.60;94.10
46416;DHT22;32620;51.704;7.822;2022-07-25T05:13:16;28.70;93.80
46416;DHT22;32620;51.704;7.822;2022-07-25T05:15:42;28.60;93.50
46416;DHT22;32620;51.704;7.822;2022-07-25T05:18:07;28.20;93.70
46416;DHT22;32620;51.704;7.822;2022-07-25T05:20:33;27.60;94.50
46416;DHT22;32620;51.704;7.822;2022-07-25T05:22:58;26.70;96.40
46416;DHT22;32620;51.704;7.822;2022-07-25T05:25:24;26.10;98.20
46416;DHT22;32620;51.704;7.822;2022-07-25T05:27:49;25.60;99.20
46416;DHT22;32620;51.704;7.822;2022-07-25T05:30:16;25.30;99.90
46416;DHT22;32620;51.704;7.822;2022-07-25T05:32:41;25.30;99.90
46416;DHT22;32620;51.704;7.822;2022-07-25T05:35:07;25.20;99.90
46416;DHT22;32620;51.704;7.822;2022-07-25T05:37:34;25.10;99.90
46416;DHT22;32620;51.704;7.822;2022-07-25T05:39:59;25.40;99.90
46416;DHT22;32620;51.704;7.822;2022-07-25T05:42:25;25.90;99.90
46416;DHT22;32620;51.704;7.822;2022-07-25T05:44:50;26.70;99.90
46416;DHT22;32620;51.704;7.822;2022-07-25T05:47:16;27.60;98.70
46416;DHT22;32620;51.704;7.822;2022-07-25T05:49:41;28.90;96.70
46416;DHT22;32620;51.704;7.822;2022-07-25T05:52:07;30.00;93.10
46416;DHT22;32620;51.704;7.822;2022-07-25T05:54:32;30.10;92.90
46416;DHT22;32620;51.704;7.822;2022-07-25T05:56:59;31.40;91.40
46416;DHT22;32620;51.704;7.822;2022-07-25T05:59:25;32.20;86.80
46416;DHT22;32620;51.704;7.822;2022-07-25T06:01:50;32.00;85.60
46416;DHT22;32620;51.704;7.822;2022-07-25T06:04:16;31.50;84.90
46416;DHT22;32620;51.704;7.822;2022-07-25T06:06:41;30.70;86.10
46416;DHT22;32620;51.704;7.822;2022-07-25T06:09:07;30.10;88.60
46416;DHT22;32620;51.704;7.822;2022-07-25T06:11:32;29.60;90.00
46416;DHT22;32620;51.704;7.822;2022-07-25T06:13:58;29.50;90.90
46416;DHT22;32620;51.704;7.822;2022-07-25T06:16:23;29.50;92.00
46416;DHT22;32620;51.704;7.822;2022-07-25T06:18:49;29.70;92.30
46416;DHT22;32620;51.704;7.822;2022-07-25T06:21:14;29.30;92.90
46416;DHT22;32620;51.704;7.822;2022-07-25T06:23:40;28.80;93.50
46416;DHT22;32620;51.704;7.822;2022-07-25T06:26:08;29.10;95.70
46416;DHT22;32620;51.704;7.822;2022-07-25T06:28:35;30.00;94.00
46416;DHT22;32620;51.704;7.822;2022-07-25T06:31:00;30.70;91.80
46416;DHT22;32620;51.704;7.822;2022-07-25T06:33:26;31.00;90.70
46416;DHT22;32620;51.704;7.822;2022-07-25T06:35:51;30.90;90.30
46416;DHT22;32620;51.704;7.822;2022-07-25T06:38:17;31.60;89.70
46416;DHT22;32620;51.704;7.822;2022-07-25T06:40:42;31.70;87.00
46416;DHT22;32620;51.704;7.822;2022-07-25T06:43:08;31.80;85.60
46416;DHT22;32620;51.704;7.822;2022-07-25T06:45:33;32.70;82.00
46416;DHT22;32620;51.704;7.822;2022-07-25T06:47:59;33.00;81.00
46416;DHT22;32620;51.704;7.822;2022-07-25T06:50:24;32.30;80.50
46416;DHT22;32620;51.704;7.822;2022-07-25T06:52:50;31.70;82.70
46416;DHT22;32620;51.704;7.822;2022-07-25T06:55:15;31.50;84.90
46416;DHT22;32620;51.704;7.822;2022-07-25T06:57:41;31.50;84.20
46416;DHT22;32620;51.704;7.822;2022-07-25T07:00:08;31.30;83.50
46416;DHT22;32620;51.704;7.822;2022-07-25T07:02:34;30.70;85.80
46416;DHT22;32620;51.704;7.822;2022-07-25T07:05:00;30.70;87.00
46416;DHT22;32620;51.704;7.822;2022-07-25T07:07:26;30.60;87.50
46416;DHT22;32620;51.704;7.822;2022-07-25T07:09:51;30.90;91.30
46416;DHT22;32620;51.704;7.822;2022-07-25T07:12:17;31.40;88.60
46416;DHT22;32620;51.704;7.822;2022-07-25T07:14:42;32.80;83.70
46416;DHT22;32620;51.704;7.822;2022-07-25T07:17:09;34.40;78.50
46416;DHT22;32620;51.704;7.822;2022-07-25T07:19:35;34.30;75.90
46416;DHT22;32620;51.704;7.822;2022-07-25T07:22:02;33.40;77.80
46416;DHT22;32620;51.704;7.822;2022-07-25T07:24:28;33.60;78.50
46416;DHT22;32620;51.704;7.822;2022-07-25T07:26:56;33.90;76.90
46416;DHT22;32620;51.704;7.822;2022-07-25T07:29:21;34.60;76.80
46416;DHT22;32620;51.704;7.822;2022-07-25T07:31:46;34.50;75.40
46416;DHT22;32620;51.704;7.822;2022-07-25T07:34:12;33.70;76.30
46416;DHT22;32620;51.704;7.822;2022-07-25T07:36:39;32.70;77.90
46416;DHT22;32620;51.704;7.822;2022-07-25T07:39:04;32.50;77.60
46416;DHT22;32620;51.704;7.822;2022-07-25T07:41:29;32.20;76.50
46416;DHT22;32620;51.704;7.822;2022-07-25T07:43:57;31.80;76.50
46416;DHT22;32620;51.704;7.822;2022-07-25T07:46:23;31.80;76.40
46416;DHT22;32620;51.704;7.822;2022-07-25T07:48:48;31.30;76.90
46416;DHT22;32620;51.704;7.822;2022-07-25T07:51:14;30.80;79.00
46416;DHT22;32620;51.704;7.822;2022-07-25T07:53:39;30.40;79.40
46416;DHT22;32620;51.704;7.822;2022-07-25T07:56:24;30.40;80.10
46416;DHT22;32620;51.704;7.822;2022-07-25T07:58:50;30.40;81.10
46416;DHT22;32620;51.704;7.822;2022-07-25T08:01:15;30.40;81.10
46416;DHT22;32620;51.704;7.822;2022-07-25T08:03:41;30.10;80.90
46416;DHT22;32620;51.704;7.822;2022-07-25T08:06:06;29.90;82.60
46416;DHT22;32620;51.704;7.822;2022-07-25T08:08:32;29.70;82.50
46416;DHT22;32620;51.704;7.822;2022-07-25T08:10:57;29.50;82.20
46416;DHT22;32620;51.704;7.822;2022-07-25T08:13:25;29.30;82.60
46416;DHT22;32620;51.704;7.822;2022-07-25T08:15:52;29.30;82.60
46416;DHT22;32620;51.704;7.822;2022-07-25T08:18:18;29.10;83.90
46416;DHT22;32620;51.704;7.822;2022-07-25T08:20:44;29.30;84.30
46416;DHT22;32620;51.704;7.822;2022-07-25T08:23:10;29.30;85.10
46416;DHT22;32620;51.704;7.822;2022-07-25T08:25:36;29.50;85.40
46416;DHT22;32620;51.704;7.822;2022-07-25T08:28:02;29.70;84.90
46416;DHT22;32620;51.704;7.822;2022-07-25T08:30:27;29.50;83.60
46416;DHT22;32620;51.704;7.822;2022-07-25T08:32:55;29.30;83.20
46416;DHT22;32620;51.704;7.822;2022-07-25T08:35:22;29.20;84.90
46416;DHT22;32620;51.704;7.822;2022-07-25T08:37:48;29.20;85.10
46416;DHT22;32620;51.704;7.822;2022-07-25T08:40:15;29.10;87.20
46416;DHT22;32620;51.704;7.822;2022-07-25T08:42:41;29.30;85.70
46416;DHT22;32620;51.704;7.822;2022-07-25T08:45:08;29.30;84.00
46416;DHT22;32620;51.704;7.822;2022-07-25T08:47:34;29.40;84.00
46416;DHT22;32620;51.704;7.822;2022-07-25T08:50:05;29.50;86.20
46416;DHT22;32620;51.704;7.822;2022-07-25T08:52:43;29.40;84.10
46416;DHT22;32620;51.704;7.822;2022-07-25T08:55:12;29.40;84.70
46416;DHT22;32620;51.704;7.822;2022-07-25T08:57:40;29.40;84.20
46416;DHT22;32620;51.704;7.822;2022-07-25T09:00:09;29.30;85.00
46416;DHT22;32620;51.704;7.822;2022-07-25T09:02:34;29.30;85.60
46416;DHT22;32620;51.704;7.822;2022-07-25T09:05:00;29.30;85.40
46416;DHT22;32620;51.704;7.822;2022-07-25T09:07:30;29.30;84.40
46416;DHT22;32620;51.704;7.822;2022-07-25T09:09:56;29.20;83.60
46416;DHT22;32620;51.704;7.822;2022-07-25T09:12:25;29.30;83.00
46416;DHT22;32620;51.704;7.822;2022-07-25T09:14:51;29.70;83.40
46416;DHT22;32620;51.704;7.822;2022-07-25T09:17:17;30.20;81.30
46416;DHT22;32620;51.704;7.822;2022-07-25T09:19:50;30.20;80.70
46416;DHT22;32620;51.704;7.822;2022-07-25T09:22:16;30.10;82.20
46416;DHT22;32620;51.704;7.822;2022-07-25T09:24:43;30.00;80.80
46416;DHT22;32620;51.704;7.822;2022-07-25T09:27:09;29.80;80.90
46416;DHT22;32620;51.704;7.822;2022-07-25T09:29:36;30.00;81.00
46416;DHT22;32620;51.704;7.822;2022-07-25T09:32:12;29.90;80.60
46416;DHT22;32620;51.704;7.822;2022-07-25T09:34:41;30.20;81.60
46416;DHT22;32620;51.704;7.822;2022-07-25T09:37:08;30.30;81.10
46416;DHT22;32620;51.704;7.822;2022-07-25T09:39:49;30.10;81.50
46416;DHT22;32620;51.704;7.822;2022-07-25T09:42:23;29.80;81.80
46416;DHT22;32620;51.704;7.822;2022-07-25T09:45:05;29.60;84.40
46416;DHT22;32620;51.704;7.822;2022-07-25T09:47:35;29.60;83.20
46416;DHT22;32620;51.704;7.822;2022-07-25T09:50:01;29.90;84.10
46416;DHT22;32620;51.704;7.822;2022-07-25T09:52:26;30.30;82.20
46416;DHT22;32620;51.704;7.822;2022-07-25T09:54:52;30.40;81.80
46416;DHT22;32620;51.704;7.822;2022-07-25T09:57:19;30.50;81.50
46416;DHT22;32620;51.704;7.822;2022-07-25T09:59:47;30.50;81.40
46416;DHT22;32620;51.704;7.822;2022-07-25T10:02:17;30.10;81.60
46416;DHT22;32620;51.704;7.822;2022-07-25T10:04:50;30.20;82.20
46416;DHT22;32620;51.704;7.822;2022-07-25T10:07:20;30.00;82.20
46416;DHT22;32620;51.704;7.822;2022-07-25T10:09:48;31.10;80.30
46416;DHT22;32620;51.704;7.822;2022-07-25T10:12:18;31.70;78.80
46416;DHT22;32620;51.704;7.822;2022-07-25T10:17:26;32.40;77.30
46416;DHT22;32620;51.704;7.822;2022-07-25T10:19:52;32.80;74.20
46416;DHT22;32620;51.704;7.822;2022-07-25T10:22:17;33.10;75.10
46416;DHT22;32620;51.704;7.822;2022-07-25T10:24:44;32.90;74.00
46416;DHT22;32620;51.704;7.822;2022-07-25T10:27:11;32.30;74.00
46416;DHT22;32620;51.704;7.822;2022-07-25T10:29:37;32.20;75.70
46416;DHT22;32620;51.704;7.822;2022-07-25T10:32:05;31.50;75.70
46416;DHT22;32620;51.704;7.822;2022-07-25T10:34:30;31.00;77.20
46416;DHT22;32620;51.704;7.822;2022-07-25T10:37:07;30.80;78.70
46416;DHT22;32620;51.704;7.822;2022-07-25T10:39:36;31.40;77.60
46416;DHT22;32620;51.704;7.822;2022-07-25T10:42:01;32.10;76.40
46416;DHT22;32620;51.704;7.822;2022-07-25T10:44:39;32.10;74.80
46416;DHT22;32620;51.704;7.822;2022-07-25T10:47:04;31.70;75.90
46416;DHT22;32620;51.704;7.822;2022-07-25T10:49:34;31.30;76.70
46416;DHT22;32620;51.704;7.822;2022-07-25T10:52:00;30.80;77.10
46416;DHT22;32620;51.704;7.822;2022-07-25T10:54:31;30.80;78.90
46416;DHT22;32620;51.704;7.822;2022-07-25T10:56:58;30.60;78.20
46416;DHT22;32620;51.704;7.822;2022-07-25T10:59:24;30.50;78.50
46416;DHT22;32620;51.704;7.822;2022-07-25T11:01:50;30.30;79.90
46416;DHT22;32620;51.704;7.822;2022-07-25T11:04:18;30.00;80.50
46416;DHT22;32620;51.704;7.822;2022-07-25T11:06:43;29.80;80.60
46416;DHT22;32620;51.704;7.822;2022-07-25T11:09:18;29.50;81.60
46416;DHT22;32620;51.704;7.822;2022-07-25T11:11:44;29.30;82.30
46416;DHT22;32620;51.704;7.822;2022-07-25T11:14:14;29.00;85.30
46416;DHT22;32620;51.704;7.822;2022-07-25T11:16:41;28.80;87.90
46416;DHT22;32620;51.704;7.822;2022-07-25T11:19:15;28.60;92.20
46416;DHT22;32620;51.704;7.822;2022-07-25T11:21:44;28.40;92.30
46416;DHT22;32620;51.704;7.822;2022-07-25T11:24:10;28.30;91.60
46416;DHT22;32620;51.704;7.822;2022-07-25T11:26:43;28.30;91.80
46416;DHT22;32620;51.704;7.822;2022-07-25T11:29:16;28.40;92.00
46416;DHT22;32620;51.704;7.822;2022-07-25T11:31:42;28.40;91.50
46416;DHT22;32620;51.704;7.822;2022-07-25T11:34:07;28.60;91.70
46416;DHT22;32620;51.704;7.822;2022-07-25T11:36:33;29.10;90.90
46416;DHT22;32620;51.704;7.822;2022-07-25T11:38:58;29.10;90.50
46416;DHT22;32620;51.704;7.822;2022-07-25T11:41:27;29.30;90.00
46416;DHT22;32620;51.704;7.822;2022-07-25T11:43:53;29.70;90.10
46416;DHT22;32620;51.704;7.822;2022-07-25T11:46:19;30.20;88.20
46416;DHT22;32620;51.704;7.822;2022-07-25T11:48:44;30.80;87.70
46416;DHT22;32620;51.704;7.822;2022-07-25T11:51:11;31.20;87.90
46416;DHT22;32620;51.704;7.822;2022-07-25T11:53:38;31.10;85.90
46416;DHT22;32620;51.704;7.822;2022-07-25T11:56:20;31.00;85.30
46416;DHT22;32620;51.704;7.822;2022-07-25T11:58:55;31.00;85.80
46416;DHT22;32620;51.704;7.822;2022-07-25T12:01:22;31.10;84.60
46416;DHT22;32620;51.704;7.822;2022-07-25T12:03:49;31.10;83.70
46416;DHT22;32620;51.704;7.822;2022-07-25T12:06:14;31.30;84.10
46416;DHT22;32620;51.704;7.822;2022-07-25T12:08:40;31.40;84.60
46416;DHT22;32620;51.704;7.822;2022-07-25T12:11:21;31.00;82.80
46416;DHT22;32620;51.704;7.822;2022-07-25T12:13:50;31.20;83.50
46416;DHT22;32620;51.704;7.822;2022-07-25T12:16:26;31.40;82.90
46416;DHT22;32620;51.704;7.822;2022-07-25T12:18:51;31.40;83.00
46416;DHT22;32620;51.704;7.822;2022-07-25T12:21:17;31.10;82.10
46416;DHT22;32620;51.704;7.822;2022-07-25T12:23:42;31.20;83.70
46416;DHT22;32620;51.704;7.822;2022-07-25T12:26:09;31.00;82.60
46416;DHT22;32620;51.704;7.822;2022-07-25T12:28:35;30.90;84.40
46416;DHT22;32620;51.704;7.822;2022-07-25T12:31:00;30.70;84.70
46416;DHT22;32620;51.704;7.822;2022-07-25T12:33:26;31.30;85.30
46416;DHT22;32620;51.704;7.822;2022-07-25T12:35:51;31.30;83.40
46416;DHT22;32620;51.704;7.822;2022-07-25T12:38:17;30.60;84.00
46416;DHT22;32620;51.704;7.822;2022-07-25T12:40:42;30.40;85.90
46416;DHT22;32620;51.704;7.822;2022-07-25T12:43:08;30.60;86.00
46416;DHT22;32620;51.704;7.822;2022-07-25T12:45:34;30.90;85.10
46416;DHT22;32620;51.704;7.822;2022-07-25T12:48:02;30.50;84.00
46416;DHT22;32620;51.704;7.822;2022-07-25T12:50:27;30.30;85.80
46416;DHT22;32620;51.704;7.822;2022-07-25T12:52:53;30.00;86.00
46416;DHT22;32620;51.704;7.822;2022-07-25T12:55:18;29.60;86.10
46416;DHT22;32620;51.704;7.822;2022-07-25T12:57:44;29.40;86.20
46416;DHT22;32620;51.704;7.822;2022-07-25T13:00:12;29.10;86.60
46416;DHT22;32620;51.704;7.822;2022-07-25T13:02:38;29.00;86.20
46416;DHT22;32620;51.704;7.822;2022-07-25T13:05:03;29.10;85.80
46416;DHT22;32620;51.704;7.822;2022-07-25T13:07:29;29.10;85.80
46416;DHT22;32620;51.704;7.822;2022-07-25T13:09:55;29.10;86.30
46416;DHT22;32620;51.704;7.822;2022-07-25T13:12:20;29.20;85.90
46416;DHT22;32620;51.704;7.822;2022-07-25T13:14:47;29.00;84.50
46416;DHT22;32620;51.704;7.822;2022-07-25T13:17:13;28.90;85.90
46416;DHT22;32620;51.704;7.822;2022-07-25T13:19:38;29.10;85.40
46416;DHT22;32620;51.704;7.822;2022-07-25T13:22:04;29.10;85.70
46416;DHT22;32620;51.704;7.822;2022-07-25T13:24:30;29.40;84.90
46416;DHT22;32620;51.704;7.822;2022-07-25T13:26:55;29.40;84.70
46416;DHT22;32620;51.704;7.822;2022-07-25T13:29:21;29.60;85.30
46416;DHT22;32620;51.704;7.822;2022-07-25T13:31:46;29.60;84.70
46416;DHT22;32620;51.704;7.822;2022-07-25T13:34:12;29.60;85.10
46416;DHT22;32620;51.704;7.822;2022-07-25T13:36:37;29.70;84.00
46416;DHT22;32620;51.704;7.822;2022-07-25T13:39:04;29.70;84.30
46416;DHT22;32620;51.704;7.822;2022-07-25T13:41:30;29.80;84.00
46416;DHT22;32620;51.704;7.822;2022-07-25T13:43:55;29.60;83.70
46416;DHT22;32620;51.704;7.822;2022-07-25T13:46:21;29.50;84.40
46416;DHT22;32620;51.704;7.822;2022-07-25T13:48:47;29.70;84.70
46416;DHT22;32620;51.704;7.822;2022-07-25T13:51:12;29.80;83.80
46416;DHT22;32620;51.704;7.822;2022-07-25T13:53:38;30.00;84.60
46416;DHT22;32620;51.704;7.822;2022-07-25T13:56:04;30.40;83.40
46416;DHT22;32620;51.704;7.822;2022-07-25T13:58:30;30.40;83.50
46416;DHT22;32620;51.704;7.822;2022-07-25T14:00:55;30.40;83.90
46416;DHT22;32620;51.704;7.822;2022-07-25T14:03:21;30.00;83.90
46416;DHT22;32620;51.704;7.822;2022-07-25T14:05:46;30.10;84.50
46416;DHT22;32620;51.704;7.822;2022-07-25T14:08:12;29.90;84.40
46416;DHT22;32620;51.704;7.822;2022-07-25T14:10:37;29.40;85.50
46416;DHT22;32620;51.704;7.822;2022-07-25T14:13:03;28.90;87.50
46416;DHT22;32620;51.704;7.822;2022-07-25T14:15:28;28.60;88.50
46416;DHT22;32620;51.704;7.822;2022-07-25T14:17:54;28.40;89.40
46416;DHT22;32620;51.704;7.822;2022-07-25T14:20:19;28.60;89.30
46416;DHT22;32620;51.704;7.822;2022-07-25T14:22:45;29.10;89.80
46416;DHT22;32620;51.704;7.822;2022-07-25T14:25:11;29.50;89.10
46416;DHT22;32620;51.704;7.822;2022-07-25T14:27:37;29.60;89.10
46416;DHT22;32620;51.704;7.822;2022-07-25T14:30:03;29.60;89.20
46416;DHT22;32620;51.704;7.822;2022-07-25T14:32:29;29.90;87.90
46416;DHT22;32620;51.704;7.822;2022-07-25T14:34:54;29.80;88.80
46416;DHT22;32620;51.704;7.822;2022-07-25T14:37:20;29.50;89.40
46416;DHT22;32620;51.704;7.822;2022-07-25T14:39:48;29.10;90.00
46416;DHT22;32620;51.704;7.822;2022-07-25T14:42:13;29.00;90.40
46416;DHT22;32620;51.704;7.822;2022-07-25T14:44:39;29.00;90.50
46416;DHT22;32620;51.704;7.822;2022-07-25T14:47:05;28.60;90.30
46416;DHT22;32620;51.704;7.822;2022-07-25T14:49:31;28.50;91.00
46416;DHT22;32620;51.704;7.822;2022-07-25T14:51:56;28.40;91.40
46416;DHT22;32620;51.704;7.822;2022-07-25T14:54:22;28.40;90.40
46416;DHT22;32620;51.704;7.822;2022-07-25T14:56:49;28.40;90.80
46416;DHT22;32620;51.704;7.822;2022-07-25T14:59:15;28.30;91.30
46416;DHT22;32620;51.704;7.822;2022-07-25T15:01:41;28.10;91.00
46416;DHT22;32620;51.704;7.822;2022-07-25T15:04:07;28.00;91.70
46416;DHT22;32620;51.704;7.822;2022-07-25T15:06:32;28.00;92.20
46416;DHT22;32620;51.704;7.822;2022-07-25T15:08:58;28.20;92.30
46416;DHT22;32620;51.704;7.822;2022-07-25T15:11:24;28.10;92.40
46416;DHT22;32620;51.704;7.822;2022-07-25T15:13:50;27.90;93.40
46416;DHT22;32620;51.704;7.822;2022-07-25T15:16:15;28.00;93.30
46416;DHT22;32620;51.704;7.822;2022-07-25T15:18:41;28.00;92.50
46416;DHT22;32620;51.704;7.822;2022-07-25T15:21:08;28.00;92.10
46416;DHT22;32620;51.704;7.822;2022-07-25T15:23:34;28.10;91.80
46416;DHT22;32620;51.704;7.822;2022-07-25T15:25:59;28.00;91.40
46416;DHT22;32620;51.704;7.822;2022-07-25T15:28:25;27.80;90.70